Decoded Metar for LDZD (ZADAR in CROATIA) (IATA:ZAD) | Meteo·Mobile Aviation Weather
aviador You're here:

LDZD Decoded Metar

ZADAR in CROATIA
Report Time2018-12-15 16:00:00
UTC Time2018-12-15 16:32:23
Flight Rules vfr VFR
Wind010° at 04 kt
W.Decomp.*RWY 04: 3.4 kt HW 2.1 kt LCW
RWY 32: 2.7 kt HW 3.0 kt RCW
W.Rank010° ranks 33
Current wind is below 010° avg. (5.4)
Visibility9999 m
Phenomena:N/A
Clouds:N/A
Expected CloudBase > 2,800 ft AGL from Temp-Dew spread
CeilingNone
Temp01°C (ISA -13)
Dew Point-6°C (60% RH)
AAT-3.1°C
QNH1016 hPa
Density Alt-1,411 ft
Elevation276 ft
Report Wrong Elevation
Raw Report
LDZD 151600Z 01004KT 330V070 CAVOK 01/M06 Q1016 NOSIG=

Extra information for LDZD:More info

Metar Taf Metar & Taf Last 4 Metars F.Rules Stats Wind Profile Meteogram Temp Stats Airport Information Weather charts Add Link Nearby VenuesMetar ALERT Operation Metar Decoded Social comments